Time;durP1;ratioP1;P1;durP2;ratioP2;P2;SDS_P1;SDS_P2;PMS_P1;PMS_P2;Temp;Humidity;BMP_temperature;BMP_pressure;BME280_temperature;BME280_humidity;BME280_pressure;Samples;Min_cycle;Max_cycle;Signal;HPM_P1;HPM_P2
2023/03/10 00:00:04;;;;;;;2.10;1.52;;;14.40;64.20;;;;;;10450768;28;20356;-57
2023/03/10 00:05:06;;;;;;;2.08;1.13;;;14.40;64.10;;;;;;10451223;28;20025;-56
2023/03/10 00:10:08;;;;;;;2.53;1.25;;;14.40;64.20;;;;;;10467142;28;20075;-57
2023/03/10 00:15:10;;;;;;;1.38;0.88;;;14.30;64.10;;;;;;10450401;28;20033;-54
2023/03/10 00:20:11;;;;;;;2.30;0.98;;;14.30;64.20;;;;;;10450364;28;20017;-57
2023/03/10 00:25:13;;;;;;;2.80;1.15;;;14.30;64.20;;;;;;10451594;28;20426;-57
2023/03/10 00:30:14;;;;;;;2.63;1.33;;;14.30;69.30;;;;;;10449203;28;20371;-57
2023/03/10 00:35:15;;;;;;;3.65;1.40;;;14.40;68.90;;;;;;10449313;28;20056;-56
2023/03/10 00:40:16;;;;;;;1.80;0.93;;;14.40;68.60;;;;;;10448821;28;20100;-57
2023/03/10 00:45:17;;;;;;;2.05;1.02;;;14.40;68.20;;;;;;10450528;28;20036;-57
2023/03/10 00:50:18;;;;;;;1.92;0.90;;;14.40;67.80;;;;;;10445459;28;20052;-57
2023/03/10 00:55:18;;;;;;;1.80;1.20;;;14.40;67.70;;;;;;10450324;28;20047;-56
2023/03/10 01:00:20;;;;;;;1.83;1.13;;;14.40;67.60;;;;;;10448637;28;20115;-56
2023/03/10 01:05:21;;;;;;;2.33;1.27;;;14.40;67.50;;;;;;10430121;28;20021;-58
2023/03/10 01:10:21;;;;;;;1.30;0.93;;;14.30;67.10;;;;;;10447944;28;20049;-57
2023/03/10 01:15:22;;;;;;;2.75;1.05;;;14.30;67.20;;;;;;10449225;28;20037;-58
2023/03/10 01:20:23;;;;;;;1.88;1.10;;;14.30;67.00;;;;;;10448879;28;20029;-56
2023/03/10 01:25:23;;;;;;;2.78;0.88;;;14.30;67.50;;;;;;10448064;28;20116;-56
2023/03/10 01:30:24;;;;;;;1.30;0.90;;;14.30;66.90;;;;;;10447348;28;20025;-57
2023/03/10 01:35:25;;;;;;;1.58;0.88;;;14.20;66.80;;;;;;10447833;28;20033;-55
2023/03/10 01:40:26;;;;;;;2.10;1.00;;;14.20;66.70;;;;;;10448274;28;20484;-56
2023/03/10 01:45:27;;;;;;;1.48;0.90;;;14.20;66.60;;;;;;10446923;28;20021;-56
2023/03/10 01:50:27;;;;;;;2.40;1.00;;;14.20;66.40;;;;;;10447954;28;20021;-57
2023/03/10 01:55:36;;;;;;;1.52;0.80;;;14.20;66.40;;;;;;10451600;28;20033;-56
2023/03/10 02:00:38;;;;;;;2.60;1.00;;;14.20;66.50;;;;;;10446337;28;20021;-57
2023/03/10 02:05:59;;;;;;;1.60;1.10;;;14.20;66.40;;;;;;10446494;28;20041;-56
2023/03/10 02:11:00;;;;;;;1.60;0.80;;;14.20;66.30;;;;;;10446550;28;20099;-57
2023/03/10 02:16:01;;;;;;;2.05;0.73;;;14.20;66.30;;;;;;10445713;28;20035;-57
2023/03/10 02:22:09;;;;;;;1.63;0.75;;;14.10;66.20;;;;;;10445847;28;20013;-60
2023/03/10 02:27:21;;;;;;;1.67;0.95;;;14.10;66.10;;;;;;10441418;28;20045;-57
2023/03/10 02:32:23;;;;;;;1.35;0.82;;;14.10;66.00;;;;;;10444411;28;20028;-57
2023/03/10 02:37:28;;;;;;;1.95;1.30;;;14.10;66.00;;;;;;10443880;28;20036;-57
2023/03/10 02:42:33;;;;;;;1.17;0.82;;;14.10;66.00;;;;;;10438356;28;20435;-57
2023/03/10 02:47:34;;;;;;;1.70;0.90;;;14.10;66.00;;;;;;10444568;28;20091;-57
2023/03/10 02:52:45;;;;;;;1.27;0.75;;;14.00;65.80;;;;;;10446259;28;20634;-58
2023/03/10 02:57:47;;;;;;;1.20;0.80;;;14.10;65.80;;;;;;10444309;28;20037;-57
2023/03/10 03:02:49;;;;;;;1.55;0.95;;;14.00;65.90;;;;;;10440289;28;20009;-56
2023/03/10 03:07:49;;;;;;;1.20;0.90;;;14.00;65.70;;;;;;10443879;28;20060;-55
2023/03/10 03:12:50;;;;;;;1.50;1.00;;;14.00;65.70;;;;;;10444375;28;20496;-57
2023/03/10 03:17:53;;;;;;;1.48;0.82;;;14.00;65.70;;;;;;10444358;28;20037;-57
2023/03/10 03:22:54;;;;;;;1.20;0.70;;;14.00;65.70;;;;;;10444123;28;20022;-58
2023/03/10 03:27:55;;;;;;;0.80;0.60;;;14.00;65.70;;;;;;10444046;28;20017;-57
2023/03/10 03:32:57;;;;;;;1.48;0.73;;;14.00;65.70;;;;;;10434542;28;20416;-58
2023/03/10 03:37:58;;;;;;;1.20;0.73;;;14.00;65.70;;;;;;10444674;28;20484;-57
2023/03/10 03:42:59;;;;;;;2.28;1.20;;;14.00;65.70;;;;;;10443947;28;20021;-57
2023/03/10 03:48:00;;;;;;;0.85;0.50;;;14.00;65.40;;;;;;10449745;28;20016;-56
2023/03/10 03:53:01;;;;;;;1.45;0.80;;;14.20;64.90;;;;;;10467971;28;20108;-57
2023/03/10 03:58:01;;;;;;;1.30;0.80;;;14.40;64.30;;;;;;10452116;28;20031;-56
2023/03/10 04:03:02;;;;;;;1.48;0.85;;;14.60;63.70;;;;;;10450859;28;20641;-56
2023/03/10 04:08:04;;;;;;;0.93;0.47;;;14.70;63.20;;;;;;10451794;28;20041;-57
2023/03/10 04:13:04;;;;;;;1.67;0.55;;;14.80;62.80;;;;;;10450848;28;20067;-57
2023/03/10 04:18:07;;;;;;;1.25;0.82;;;15.00;62.50;;;;;;10433780;28;20359;-57
2023/03/10 04:23:07;;;;;;;1.20;0.70;;;15.00;62.20;;;;;;10451569;28;20411;-57
2023/03/10 04:28:09;;;;;;;1.02;0.47;;;15.20;62.00;;;;;;10450305;28;20125;-57
2023/03/10 04:33:11;;;;;;;1.10;0.60;;;15.20;61.70;;;;;;10450798;28;20016;-56
2023/03/10 04:38:12;;;;;;;0.82;0.50;;;15.30;61.30;;;;;;10432863;28;20772;-57
2023/03/10 04:43:12;;;;;;;2.17;0.55;;;15.50;61.20;;;;;;10450602;28;20064;-56
2023/03/10 04:48:13;;;;;;;0.73;0.63;;;15.50;60.80;;;;;;10452719;28;20346;-57
2023/03/10 04:53:14;;;;;;;1.08;0.90;;;15.60;60.60;;;;;;10465700;28;20029;-57
2023/03/10 04:58:15;;;;;;;1.08;0.57;;;15.70;60.20;;;;;;10447656;28;20713;-57
2023/03/10 05:03:16;;;;;;;0.80;0.50;;;15.80;60.10;;;;;;10448269;28;20100;-57
2023/03/10 05:08:16;;;;;;;0.93;0.40;;;16.00;59.70;;;;;;10448994;28;20045;-57
2023/03/10 05:13:17;;;;;;;1.27;0.50;;;16.10;59.50;;;;;;10444878;28;20456;-57
2023/03/10 05:18:18;;;;;;;0.60;0.50;;;16.10;59.40;;;;;;10444751;28;20025;-55
2023/03/10 05:23:19;;;;;;;0.65;0.38;;;16.10;59.40;;;;;;10447683;28;20013;-56
2023/03/10 05:28:20;;;;;;;0.98;0.40;;;16.10;59.30;;;;;;10448214;28;20048;-56
2023/03/10 05:33:20;;;;;;;1.23;0.32;;;16.20;59.30;;;;;;10448332;28;20032;-57
2023/03/10 05:38:21;;;;;;;0.47;0.30;;;16.20;59.00;;;;;;10447797;28;20064;-57
2023/03/10 05:43:22;;;;;;;0.85;0.40;;;16.30;58.90;;;;;;10447931;28;20512;-58
2023/03/10 05:48:23;;;;;;;3.13;0.80;;;16.40;58.90;;;;;;10444958;28;20059;-57
2023/03/10 05:53:24;;;;;;;0.65;0.40;;;16.50;59.70;;;;;;10437952;28;20022;-56
2023/03/10 05:58:25;;;;;;;3.80;0.50;;;16.60;59.30;;;;;;10447795;28;20059;-56
2023/03/10 06:03:28;;;;;;;10.93;0.82;;;16.70;59.70;;;;;;10446024;28;20044;-57
2023/03/10 06:08:29;;;;;;;7.35;1.05;;;16.70;60.00;;;;;;10428254;28;20029;-56
2023/03/10 06:13:30;;;;;;;4.30;0.80;;;16.80;60.40;;;;;;10446533;28;20037;-57
2023/03/10 06:18:32;;;;;;;8.93;1.38;;;17.00;60.50;;;;;;10444583;28;20070;-57
2023/03/10 06:23:33;;;;;;;3.95;0.63;;;17.10;60.50;;;;;;10445471;28;20163;-55
2023/03/10 06:28:37;;;;;;;6.78;1.33;;;17.20;60.30;;;;;;10441503;28;20025;-57
2023/03/10 06:33:38;;;;;;;7.05;1.08;;;17.30;60.50;;;;;;10445949;28;20049;-55
2023/03/10 06:38:39;;;;;;;11.45;1.58;;;17.30;60.40;;;;;;10445342;28;20025;-58
2023/03/10 06:43:40;;;;;;;9.85;1.17;;;17.30;60.80;;;;;;10445367;28;20111;-57
2023/03/10 06:48:42;;;;;;;6.03;1.60;;;17.10;61.30;;;;;;10436387;28;20025;-58
2023/03/10 06:53:43;;;;;;;6.63;0.90;;;16.90;61.20;;;;;;10459200;28;20033;-59
2023/03/10 06:58:44;;;;;;;7.80;1.48;;;17.00;61.90;;;;;;10427903;28;20021;-57
2023/03/10 07:03:45;;;;;;;13.80;1.73;;;16.90;61.90;;;;;;10443502;28;20021;-52
2023/03/10 07:08:46;;;;;;;9.20;1.30;;;16.80;62.40;;;;;;10418132;28;20053;-55
2023/03/10 07:13:47;;;;;;;8.32;1.85;;;16.60;62.70;;;;;;10420104;28;20428;-57
2023/03/10 07:18:48;;;;;;;9.02;1.38;;;16.50;63.10;;;;;;10440497;28;20076;-56
2023/03/10 07:23:49;;;;;;;15.00;1.90;;;16.50;62.80;;;;;;10434857;28;20096;-56
2023/03/10 07:28:50;;;;;;;9.25;1.73;;;16.60;62.40;;;;;;10442550;28;20013;-57
2023/03/10 07:33:50;;;;;;;15.90;1.15;;;16.50;62.30;;;;;;10447943;28;20128;-56
2023/03/10 07:38:51;;;;;;;9.10;1.30;;;16.50;62.10;;;;;;10449854;28;20099;-56
2023/03/10 07:43:53;;;;;;;11.85;1.70;;;16.50;62.10;;;;;;10447323;28;20024;-57
2023/03/10 07:48:57;;;;;;;8.90;1.67;;;16.60;62.10;;;;;;10426831;28;20476;-56
2023/03/10 07:53:58;;;;;;;5.57;0.98;;;16.60;62.50;;;;;;10446884;28;20095;-56
2023/03/10 07:58:59;;;;;;;6.13;0.90;;;16.50;63.50;;;;;;10448016;28;20079;-55
2023/03/10 08:04:00;;;;;;;12.00;1.38;;;16.50;62.60;;;;;;10438196;28;20025;-57
2023/03/10 08:09:01;;;;;;;5.63;1.13;;;16.50;62.60;;;;;;10447334;28;20049;-56
2023/03/10 08:14:03;;;;;;;5.68;1.35;;;16.40;62.30;;;;;;10423659;28;20077;-55
2023/03/10 08:19:03;;;;;;;9.07;1.40;;;16.40;62.20;;;;;;10450416;28;20413;-56
2023/03/10 08:24:04;;;;;;;8.50;1.10;;;16.40;62.60;;;;;;10426836;28;20033;-55
2023/03/10 08:29:05;;;;;;;7.28;1.20;;;16.30;63.00;;;;;;10433763;28;20448;-55
2023/03/10 08:34:06;;;;;;;7.60;1.00;;;16.30;62.50;;;;;;10435681;28;20037;-56
2023/03/10 08:39:07;;;;;;;2.97;0.57;;;16.20;62.80;;;;;;10449064;28;20020;-58
2023/03/10 08:44:10;;;;;;;5.15;0.98;;;16.10;63.00;;;;;;10447641;28;20098;-57
2023/03/10 08:49:13;;;;;;;5.57;0.63;;;16.10;63.00;;;;;;10432521;28;20009;-57
2023/03/10 08:54:17;;;;;;;4.18;0.70;;;16.10;62.80;;;;;;10427310;28;20056;-56
2023/03/10 08:59:18;;;;;;;3.00;0.60;;;16.00;63.00;;;;;;10445294;28;20101;-54
2023/03/10 09:04:19;;;;;;;2.88;0.70;;;16.00;63.10;;;;;;10436135;28;20036;-56
2023/03/10 09:09:20;;;;;;;1.75;0.70;;;16.10;63.10;;;;;;10449358;28;20451;-58
2023/03/10 09:14:20;;;;;;;3.72;0.80;;;16.10;62.90;;;;;;10429015;28;20120;-57
2023/03/10 09:19:21;;;;;;;7.18;1.65;;;16.10;63.90;;;;;;10441373;28;20025;-56
2023/03/10 09:24:23;;;;;;;3.65;1.08;;;16.00;68.50;;;;;;10442524;28;20028;-55
2023/03/10 09:29:24;;;;;;;4.80;1.10;;;16.00;68.90;;;;;;10421701;28;20025;-56
2023/03/10 09:34:26;;;;;;;3.30;0.77;;;16.00;69.50;;;;;;10418887;28;20075;-55
2023/03/10 09:39:27;;;;;;;2.67;0.50;;;16.00;68.70;;;;;;10426410;28;20025;-55
2023/03/10 09:44:48;;;;;;;5.22;0.70;;;16.00;68.20;;;;;;10443964;28;20017;-56
2023/03/10 09:50:00;;;;;;;1.40;0.50;;;16.00;67.00;;;;;;10442868;28;20096;-56
2023/03/10 09:55:25;;;;;;;2.10;0.73;;;16.10;67.90;;;;;;10444125;28;20121;-55
2023/03/10 10:00:37;;;;;;;12.18;1.05;;;16.20;67.00;;;;;;10428554;28;20708;-56
2023/03/10 10:05:41;;;;;;;8.25;1.73;;;16.40;68.70;;;;;;10443472;28;20025;-55
2023/03/10 10:10:44;;;;;;;9.40;2.00;;;16.40;69.30;;;;;;10442882;28;20053;-55
2023/03/10 10:15:55;;;;;;;9.57;1.83;;;16.40;69.20;;;;;;10453257;28;20477;-57
2023/03/10 10:21:13;;;;;;;15.30;1.80;;;16.50;67.60;;;;;;10425706;28;20063;-58
2023/03/10 10:26:25;;;;;;;9.18;1.60;;;16.20;69.00;;;;;;10414936;28;20033;-58
2023/03/10 10:31:30;;;;;;;10.88;1.50;;;16.00;69.20;;;;;;10444227;28;20435;-57
2023/03/10 10:36:37;;;;;;;10.52;2.08;;;15.90;69.20;;;;;;10444805;28;20051;-56
2023/03/10 10:41:37;;;;;;;5.97;1.17;;;15.80;69.10;;;;;;10453344;28;20105;-58
2023/03/10 10:46:54;;;;;;;8.35;1.95;;;15.80;69.00;;;;;;10443308;28;20018;-56
2023/03/10 10:52:16;;;;;;;5.35;1.15;;;15.70;68.80;;;;;;10440154;28;20021;-58
2023/03/10 10:57:28;;;;;;;4.88;2.25;;;15.70;69.40;;;;;;10445310;28;20041;-54
2023/03/10 11:02:32;;;;;;;5.35;1.40;;;15.80;68.90;;;;;;10449392;28;20096;-58
2023/03/10 11:07:32;;;;;;;5.05;1.20;;;16.00;68.60;;;;;;10449002;28;20747;-57
2023/03/10 11:12:55;;;;;;;6.47;1.27;;;16.20;67.90;;;;;;10455254;28;20025;-56
2023/03/10 11:18:13;;;;;;;8.23;1.60;;;16.40;66.80;;;;;;10451375;28;20029;-58
2023/03/10 11:23:41;;;;;;;7.20;1.80;;;16.50;66.80;;;;;;10445102;28;20013;-56
2023/03/10 11:29:03;;;;;;;6.32;1.40;;;16.70;66.20;;;;;;10451420;28;20017;-55
2023/03/10 11:34:19;;;;;;;4.15;1.40;;;16.80;66.00;;;;;;10438541;28;20399;-57
2023/03/10 11:39:50;;;;;;;5.18;0.80;;;16.90;66.00;;;;;;10448509;28;20037;-58
2023/03/10 11:45:21;;;;;;;7.90;0.93;;;16.90;66.00;;;;;;10426887;28;20053;-56
2023/03/10 11:50:45;;;;;;;5.15;1.23;;;17.10;65.30;;;;;;10451242;28;20021;-59
2023/03/10 11:55:47;;;;;;;4.90;0.90;;;17.20;65.40;;;;;;10432595;28;20563;-56
2023/03/10 12:00:51;;;;;;;5.88;1.05;;;17.40;64.40;;;;;;10446573;28;20792;-55
2023/03/10 12:05:57;;;;;;;6.47;1.13;;;17.40;64.30;;;;;;10447385;28;20021;-56
2023/03/10 12:11:03;;;;;;;4.60;0.63;;;17.60;63.80;;;;;;10436503;28;20526;-56
2023/03/10 12:16:06;;;;;;;9.15;1.67;;;17.50;63.60;;;;;;10446401;28;20033;-57
2023/03/10 12:21:24;;;;;;;3.58;0.60;;;17.40;63.50;;;;;;10455221;28;20013;-56
2023/03/10 12:26:37;;;;;;;3.22;0.95;;;17.40;63.40;;;;;;10447858;28;20619;-55
2023/03/10 12:31:38;;;;;;;7.35;0.95;;;17.50;63.70;;;;;;10447474;28;20053;-55
2023/03/10 12:36:44;;;;;;;9.45;1.00;;;17.50;63.40;;;;;;10449779;28;20115;-56
2023/03/10 12:41:51;;;;;;;3.63;0.57;;;17.50;63.20;;;;;;10448185;28;20116;-55
2023/03/10 12:47:08;;;;;;;7.90;0.50;;;17.60;62.90;;;;;;10446915;28;20139;-56
2023/03/10 12:52:31;;;;;;;8.45;1.08;;;17.60;62.70;;;;;;10432293;28;20031;-57
2023/03/10 12:57:54;;;;;;;4.45;0.80;;;17.70;63.50;;;;;;10443883;28;20041;-55
2023/03/10 13:03:15;;;;;;;6.50;1.65;;;17.70;62.70;;;;;;10444139;28;20021;-54
2023/03/10 13:08:28;;;;;;;5.75;0.80;;;17.70;62.20;;;;;;10443439;28;20049;-55
2023/03/10 13:13:36;;;;;;;9.68;1.10;;;17.70;62.50;;;;;;10446668;28;20076;-56
2023/03/10 13:18:45;;;;;;;9.60;1.25;;;17.60;62.90;;;;;;10416766;28;20021;-55
2023/03/10 13:23:45;;;;;;;12.00;1.42;;;17.50;64.00;;;;;;10430194;28;20024;-57
2023/03/10 13:28:56;;;;;;;10.95;1.08;;;17.70;63.50;;;;;;10427140;28;20163;-56
2023/03/10 13:34:17;;;;;;;8.52;1.55;;;17.90;63.50;;;;;;10434567;28;20028;-58
2023/03/10 13:39:21;;;;;;;10.52;1.20;;;17.80;63.30;;;;;;10437647;28;20083;-56
2023/03/10 13:44:27;;;;;;;9.30;0.85;;;17.80;63.50;;;;;;10447813;28;20590;-57
2023/03/10 13:49:33;;;;;;;7.70;1.17;;;17.80;63.40;;;;;;10450077;28;20469;-55
2023/03/10 13:54:37;;;;;;;8.10;1.25;;;17.80;63.40;;;;;;10435984;28;20382;-55
2023/03/10 13:59:38;;;;;;;4.57;0.82;;;17.90;63.10;;;;;;10428909;28;20031;-56
2023/03/10 14:04:51;;;;;;;10.45;1.83;;;18.00;62.70;;;;;;10437253;28;20118;-55
2023/03/10 14:10:04;;;;;;;16.35;2.10;;;17.80;63.60;;;;;;10428383;28;20603;-54
2023/03/10 14:15:28;;;;;;;10.45;1.83;;;17.50;63.90;;;;;;10435690;28;20031;-57
2023/03/10 14:20:31;;;;;;;8.63;1.23;;;17.60;63.80;;;;;;10441762;28;20031;-57
2023/03/10 14:25:32;;;;;;;25.58;2.63;;;17.80;64.30;;;;;;10438438;28;20368;-61
2023/03/10 14:30:33;;;;;;;10.90;1.45;;;17.90;64.10;;;;;;10443251;28;20029;-56
2023/03/10 14:35:34;;;;;;;6.65;1.92;;;18.00;63.90;;;;;;10442844;28;20029;-56
2023/03/10 14:40:49;;;;;;;14.57;1.75;;;18.10;64.00;;;;;;10436146;28;20477;-56
2023/03/10 14:45:51;;;;;;;7.20;1.10;;;18.00;64.00;;;;;;10432497;28;20030;-56
2023/03/10 14:50:52;;;;;;;5.00;1.50;;;18.10;63.70;;;;;;10413853;28;20071;-57
2023/03/10 14:55:55;;;;;;;4.38;1.45;;;18.20;63.70;;;;;;10432214;28;20037;-55
2023/03/10 15:00:57;;;;;;;8.45;1.35;;;18.00;62.90;;;;;;10428344;28;20056;-56
2023/03/10 15:05:57;;;;;;;22.20;2.90;;;18.00;63.10;;;;;;10442649;28;20013;-57
2023/03/10 15:10:58;;;;;;;15.93;2.45;;;17.90;63.80;;;;;;10431639;28;20100;-55
2023/03/10 15:15:59;;;;;;;17.63;2.63;;;17.80;63.90;;;;;;10438166;28;20028;-55
2023/03/10 15:21:01;;;;;;;23.00;2.47;;;17.90;63.40;;;;;;10429768;28;20170;-55
2023/03/10 15:26:08;;;;;;;28.02;4.70;;;17.80;63.70;;;;;;10424465;28;20648;-55
2023/03/10 15:31:08;;;;;;;26.30;3.97;;;17.90;63.70;;;;;;10448887;28;20435;-56
2023/03/10 15:36:10;;;;;;;41.05;5.95;;;17.90;64.50;;;;;;10438541;28;20121;-53
2023/03/10 15:41:12;;;;;;;52.90;5.88;;;17.60;65.50;;;;;;10430147;28;20018;-56
2023/03/10 15:46:13;;;;;;;52.75;7.38;;;17.60;65.30;;;;;;10439701;28;20032;-56
2023/03/10 15:51:16;;;;;;;51.78;5.32;;;17.80;62.90;;;;;;10448277;28;20080;-56
2023/03/10 15:56:17;;;;;;;28.42;4.43;;;18.00;61.80;;;;;;10435575;28;20144;-56
2023/03/10 16:01:19;;;;;;;27.85;4.05;;;18.00;61.30;;;;;;10443393;28;20025;-56
2023/03/10 16:06:25;;;;;;;28.98;5.38;;;17.80;61.90;;;;;;10434661;28;20545;-57
2023/03/10 16:11:26;;;;;;;21.45;4.28;;;17.50;64.60;;;;;;10450720;28;20028;-57
2023/03/10 16:16:27;;;;;;;20.88;3.90;;;17.50;65.50;;;;;;10439723;28;20029;-57
2023/03/10 16:21:28;;;;;;;20.95;3.10;;;17.50;65.70;;;;;;10437970;28;20134;-57
2023/03/10 16:26:28;;;;;;;21.00;3.47;;;17.40;66.40;;;;;;10437052;28;20016;-56
2023/03/10 16:31:29;;;;;;;12.65;2.60;;;17.50;65.50;;;;;;10432383;28;20025;-57
2023/03/10 16:36:30;;;;;;;12.60;2.03;;;17.10;65.90;;;;;;10419577;28;20082;-55
2023/03/10 16:41:31;;;;;;;12.05;1.75;;;17.00;65.80;;;;;;10437094;28;20021;-56
2023/03/10 16:46:33;;;;;;;11.45;3.17;;;17.10;65.00;;;;;;10417797;28;20108;-57
2023/03/10 16:51:38;;;;;;;8.43;2.22;;;17.10;64.40;;;;;;10421729;28;20021;-57
2023/03/10 16:56:46;;;;;;;12.40;2.20;;;17.30;63.50;;;;;;10428437;28;21010;-57
2023/03/10 17:01:48;;;;;;;12.73;2.30;;;17.20;63.60;;;;;;10420199;28;20415;-59
2023/03/10 17:06:49;;;;;;;16.83;2.30;;;17.20;63.50;;;;;;10428493;28;20038;-57
2023/03/10 17:11:51;;;;;;;19.45;2.42;;;16.90;64.20;;;;;;10436811;28;20028;-57
2023/03/10 17:16:54;;;;;;;22.83;3.03;;;16.90;63.30;;;;;;10433396;28;20120;-58
2023/03/10 17:21:57;;;;;;;20.73;3.15;;;17.30;62.00;;;;;;10442467;28;20034;-59
2023/03/10 17:26:57;;;;;;;16.00;2.95;;;17.40;61.60;;;;;;10448712;28;20495;-57
2023/03/10 17:31:59;;;;;;;23.33;2.95;;;17.70;65.40;;;;;;10448190;28;20053;-57
2023/03/10 17:37:00;;;;;;;13.63;2.72;;;18.00;66.60;;;;;;10443858;28;20537;-58
2023/03/10 17:42:02;;;;;;;19.27;2.20;;;18.10;64.70;;;;;;10448710;28;20456;-56
2023/03/10 17:47:03;;;;;;;19.65;2.28;;;18.10;63.90;;;;;;10446757;28;20051;-57
2023/03/10 17:52:04;;;;;;;14.18;2.08;;;18.10;64.30;;;;;;10445622;28;20104;-58
2023/03/10 17:57:05;;;;;;;14.38;2.83;;;18.20;64.00;;;;;;10447116;28;20036;-59
2023/03/10 18:02:05;;;;;;;12.77;2.05;;;18.30;63.40;;;;;;10445731;28;20742;-57
2023/03/10 18:07:06;;;;;;;19.63;3.30;;;18.20;63.80;;;;;;10444328;28;20037;-59
2023/03/10 18:12:07;;;;;;;21.45;2.50;;;18.10;63.80;;;;;;10445415;28;20524;-58
2023/03/10 18:17:08;;;;;;;15.52;2.47;;;18.10;63.90;;;;;;10446220;28;20045;-59
2023/03/10 18:22:08;;;;;;;16.75;3.25;;;17.90;64.40;;;;;;10449386;28;20114;-59
2023/03/10 18:27:09;;;;;;;10.93;2.22;;;17.90;64.00;;;;;;10446516;28;20075;-58
2023/03/10 18:32:10;;;;;;;15.52;2.00;;;17.90;63.80;;;;;;10446861;28;20689;-59
2023/03/10 18:37:10;;;;;;;10.50;2.17;;;17.80;63.70;;;;;;10438710;28;20045;-57
2023/03/10 18:42:11;;;;;;;5.68;1.50;;;17.90;63.40;;;;;;10444936;28;20050;-60
2023/03/10 18:47:12;;;;;;;6.25;1.40;;;18.00;63.00;;;;;;10444767;28;20044;-60
2023/03/10 18:52:15;;;;;;;6.85;1.67;;;18.00;62.50;;;;;;10445592;28;20040;-58
2023/03/10 18:57:15;;;;;;;8.50;1.48;;;18.00;61.80;;;;;;10444337;28;20110;-58
2023/03/10 19:02:16;;;;;;;8.10;1.10;;;17.90;61.70;;;;;;10436574;28;20017;-60
2023/03/10 19:07:20;;;;;;;5.32;1.25;;;17.90;61.40;;;;;;10437504;28;20076;-58
2023/03/10 19:12:22;;;;;;;9.73;1.60;;;18.00;61.30;;;;;;10423484;28;20061;-57
2023/03/10 19:17:25;;;;;;;4.57;1.05;;;17.80;61.40;;;;;;10446604;28;20132;-58
2023/03/10 19:22:26;;;;;;;11.20;1.60;;;17.80;61.10;;;;;;10444496;28;20090;-59
2023/03/10 19:27:27;;;;;;;8.30;1.75;;;17.90;61.30;;;;;;10422123;28;20586;-58
2023/03/10 19:32:27;;;;;;;4.35;1.38;;;17.90;61.10;;;;;;10419246;28;20072;-59
2023/03/10 19:37:29;;;;;;;5.43;1.30;;;18.00;60.70;;;;;;10438310;28;20025;-60
2023/03/10 19:42:29;;;;;;;3.40;1.10;;;17.90;60.90;;;;;;10437727;28;20017;-59
2023/03/10 19:47:31;;;;;;;6.40;1.23;;;17.90;61.40;;;;;;10450839;28;20029;-58
2023/03/10 19:52:31;;;;;;;3.55;1.17;;;17.90;61.50;;;;;;10451760;28;20025;-58
2023/03/10 19:57:35;;;;;;;3.53;0.98;;;17.90;61.30;;;;;;10452951;28;20044;-57
2023/03/10 20:02:36;;;;;;;4.15;1.30;;;17.90;61.00;;;;;;10440908;28;20005;-58
2023/03/10 20:07:38;;;;;;;4.80;1.17;;;17.80;61.20;;;;;;10448793;28;20053;-59
2023/03/10 20:12:39;;;;;;;3.03;1.08;;;17.80;61.20;;;;;;10449691;28;20023;-59
2023/03/10 20:17:39;;;;;;;3.40;1.35;;;17.80;61.30;;;;;;10449876;28;20481;-59
2023/03/10 20:22:44;;;;;;;4.53;1.10;;;17.80;60.90;;;;;;10450365;28;20110;-58
2023/03/10 20:27:46;;;;;;;5.18;0.90;;;17.80;61.10;;;;;;10450222;28;20029;-58
2023/03/10 20:32:47;;;;;;;4.07;1.15;;;17.80;61.20;;;;;;10449250;28;20032;-58
2023/03/10 20:37:48;;;;;;;4.80;1.30;;;17.80;61.40;;;;;;10451049;28;20025;-57
2023/03/10 20:42:50;;;;;;;6.57;1.95;;;17.70;61.50;;;;;;10449357;28;20494;-57
2023/03/10 20:47:52;;;;;;;3.15;1.38;;;17.50;61.70;;;;;;10449770;28;20045;-58
2023/03/10 20:52:53;;;;;;;2.90;1.13;;;17.40;62.30;;;;;;10436492;28;20185;-59
2023/03/10 20:57:56;;;;;;;2.22;0.82;;;17.30;62.40;;;;;;10444703;28;20033;-59
2023/03/10 21:02:58;;;;;;;5.13;1.10;;;17.00;62.30;;;;;;10447432;28;20028;-59
2023/03/10 21:07:59;;;;;;;3.35;0.70;;;16.90;62.60;;;;;;10447342;28;20037;-59
2023/03/10 21:12:59;;;;;;;5.10;1.00;;;16.80;62.60;;;;;;10445569;28;20017;-59
2023/03/10 21:18:00;;;;;;;5.05;1.10;;;16.70;62.70;;;;;;10428747;28;20055;-58
2023/03/10 21:23:01;;;;;;;3.67;1.23;;;16.60;62.80;;;;;;10446100;28;20017;-59
2023/03/10 21:28:02;;;;;;;4.82;1.17;;;16.50;62.90;;;;;;10443353;28;20099;-58
2023/03/10 21:33:02;;;;;;;2.67;0.75;;;16.40;63.50;;;;;;10427566;28;20613;-58
2023/03/10 21:38:03;;;;;;;5.50;0.68;;;16.30;63.00;;;;;;10423348;28;20028;-57
2023/03/10 21:43:04;;;;;;;1.65;0.60;;;16.20;63.00;;;;;;10423592;28;20024;-59
2023/03/10 21:48:05;;;;;;;1.58;0.93;;;16.20;63.10;;;;;;10439166;28;20310;-58
2023/03/10 21:53:05;;;;;;;1.60;0.88;;;16.10;63.10;;;;;;10432063;28;20029;-58
2023/03/10 21:58:06;;;;;;;4.63;1.02;;;16.10;63.20;;;;;;10443302;28;20029;-59
2023/03/10 22:03:07;;;;;;;2.67;0.90;;;16.00;63.20;;;;;;10443591;28;20025;-58
2023/03/10 22:08:08;;;;;;;1.45;0.85;;;15.90;63.00;;;;;;10444412;28;20302;-58
2023/03/10 22:13:08;;;;;;;2.00;1.10;;;15.90;63.20;;;;;;10443988;28;20025;-59
2023/03/10 22:18:09;;;;;;;2.58;1.00;;;15.80;63.30;;;;;;10444217;28;20021;-57
2023/03/10 22:23:10;;;;;;;2.03;0.90;;;15.80;63.30;;;;;;10444379;28;20377;-57
2023/03/10 22:28:10;;;;;;;2.22;0.98;;;15.80;63.40;;;;;;10425926;28;20017;-58
2023/03/10 22:33:11;;;;;;;1.23;0.73;;;15.70;63.40;;;;;;10443610;28;20019;-58
2023/03/10 22:38:12;;;;;;;3.05;1.17;;;15.70;63.40;;;;;;10443355;28;20116;-58
2023/03/10 22:43:13;;;;;;;2.40;0.80;;;15.60;63.40;;;;;;10442966;28;20036;-58
2023/03/10 22:48:14;;;;;;;1.55;0.70;;;15.60;63.40;;;;;;10439239;28;20029;-57
2023/03/10 22:53:18;;;;;;;1.88;0.70;;;15.50;63.40;;;;;;10446597;28;20033;-58
2023/03/10 22:58:18;;;;;;;2.30;1.00;;;15.50;63.40;;;;;;10440877;28;20032;-58
2023/03/10 23:03:19;;;;;;;2.40;0.60;;;15.40;63.30;;;;;;10441428;28;20104;-59
2023/03/10 23:08:20;;;;;;;1.48;0.70;;;15.40;63.30;;;;;;10441014;28;20056;-58
2023/03/10 23:13:21;;;;;;;1.90;0.77;;;15.40;63.40;;;;;;10440764;28;20120;-57
2023/03/10 23:18:21;;;;;;;1.15;0.70;;;15.30;63.40;;;;;;10439839;28;20408;-58
2023/03/10 23:23:22;;;;;;;2.45;1.15;;;15.30;63.40;;;;;;10442554;28;20096;-58
2023/03/10 23:28:23;;;;;;;0.90;0.52;;;15.30;63.20;;;;;;10441073;28;20379;-58
2023/03/10 23:33:24;;;;;;;1.13;0.77;;;15.20;63.00;;;;;;10440748;28;20056;-58
2023/03/10 23:38:25;;;;;;;1.73;0.75;;;15.20;62.90;;;;;;10423699;28;20031;-58
2023/03/10 23:43:26;;;;;;;1.52;0.70;;;15.20;63.60;;;;;;10457246;28;20036;-59
2023/03/10 23:48:27;;;;;;;2.55;1.55;;;15.20;63.00;;;;;;10436491;28;20085;-59
2023/03/10 23:53:29;;;;;;;2.17;1.00;;;15.10;62.90;;;;;;10447955;28;20073;-58
2023/03/10 23:58:30;;;;;;;3.42;1.15;;;15.10;62.80;;;;;;10440014;28;20481;-58
